Time;durP1;ratioP1;P1;durP2;ratioP2;P2;SDS_P1;SDS_P2;PMS_P1;PMS_P2;Temp;Humidity;BMP_temperature;BMP_pressure;BME280_temperature;BME280_humidity;BME280_pressure;Samples;Min_cycle;Max_cycle;Signal;HPM_P1;HPM_P2
2023/08/23 00:01:45;;;;;;;5.70;3.80;;;18.20;99.90;;;;;;5063684;28;20466;-35
2023/08/23 00:04:11;;;;;;;6.30;4.45;;;18.20;99.90;;;;;;5060444;28;20048;-36
2023/08/23 00:06:36;;;;;;;5.55;3.58;;;18.20;99.90;;;;;;5059616;28;20052;-35
2023/08/23 00:09:05;;;;;;;5.90;3.63;;;18.20;99.90;;;;;;5057828;28;20058;-35
2023/08/23 00:11:30;;;;;;;5.75;3.38;;;18.10;99.90;;;;;;5058516;28;20090;-35
2023/08/23 00:13:56;;;;;;;6.05;3.63;;;18.10;99.90;;;;;;5061548;28;20148;-35
2023/08/23 00:16:22;;;;;;;5.40;3.80;;;18.00;99.90;;;;;;5047557;28;20079;-35
2023/08/23 00:18:49;;;;;;;6.47;2.67;;;17.90;99.90;;;;;;5050355;28;20087;-35
2023/08/23 00:21:15;;;;;;;5.40;2.72;;;17.90;99.90;;;;;;5045381;28;20537;-35
2023/08/23 00:23:41;;;;;;;14.93;2.45;;;17.80;99.90;;;;;;5044254;28;20049;-35
2023/08/23 00:26:06;;;;;;;4.28;1.45;;;17.70;99.90;;;;;;5049016;28;20052;-35
2023/08/23 00:28:32;;;;;;;1.95;1.58;;;17.60;99.90;;;;;;5061687;28;20044;-35
2023/08/23 00:30:58;;;;;;;2.55;1.85;;;17.50;99.90;;;;;;5061261;28;20107;-35
2023/08/23 00:33:23;;;;;;;3.10;1.77;;;17.40;99.90;;;;;;5060506;28;20071;-35
2023/08/23 00:35:49;;;;;;;3.33;2.03;;;17.40;99.90;;;;;;5060422;28;20498;-35
2023/08/23 00:38:15;;;;;;;2.80;2.08;;;17.40;99.90;;;;;;5054315;28;21180;-35
2023/08/23 00:40:40;;;;;;;4.28;2.42;;;17.40;99.90;;;;;;5049866;28;20080;-35
2023/08/23 00:43:09;;;;;;;3.33;2.30;;;17.40;99.90;;;;;;5058155;28;20100;-35
2023/08/23 00:45:36;;;;;;;3.55;1.98;;;17.40;99.90;;;;;;5059020;28;20139;-36
2023/08/23 00:48:03;;;;;;;6.05;2.60;;;17.40;99.90;;;;;;5059801;28;20056;-35
2023/08/23 00:50:30;;;;;;;4.00;1.90;;;17.40;99.90;;;;;;5061178;28;20059;-35
2023/08/23 00:52:56;;;;;;;4.72;2.03;;;17.40;99.90;;;;;;5056153;28;20057;-35
2023/08/23 00:55:23;;;;;;;7.65;2.10;;;17.40;99.90;;;;;;5061160;28;20056;-36
2023/08/23 00:57:50;;;;;;;2.55;1.55;;;17.40;99.90;;;;;;5054107;28;20242;-35
2023/08/23 01:00:16;;;;;;;4.10;2.13;;;17.30;99.90;;;;;;5049988;28;20070;-35
2023/08/23 01:02:42;;;;;;;4.35;2.47;;;17.30;99.90;;;;;;5060604;28;20551;-35
2023/08/23 01:05:08;;;;;;;4.10;2.60;;;17.20;99.90;;;;;;5064784;28;20086;-35
2023/08/23 01:07:50;;;;;;;4.20;2.75;;;17.20;99.90;;;;;;5062468;28;20048;-35
2023/08/23 01:10:34;;;;;;;4.65;2.65;;;17.20;99.90;;;;;;5063880;28;20048;-35
2023/08/23 01:13:14;;;;;;;4.38;3.33;;;17.20;99.90;;;;;;5060050;28;20056;-35
2023/08/23 01:15:41;;;;;;;4.40;2.70;;;17.20;99.90;;;;;;5057268;28;20127;-34
2023/08/23 01:18:06;;;;;;;4.57;2.97;;;17.20;99.90;;;;;;5062914;28;20061;-35
2023/08/23 01:20:34;;;;;;;4.05;2.53;;;17.10;99.90;;;;;;5056514;28;20741;-35
2023/08/23 01:23:16;;;;;;;4.05;2.80;;;17.10;99.90;;;;;;5058909;28;20127;-35
2023/08/23 01:25:52;;;;;;;3.85;2.53;;;17.10;99.90;;;;;;5061032;28;20084;-35
2023/08/23 01:28:19;;;;;;;4.05;2.40;;;17.10;99.90;;;;;;5055611;28;20047;-35
2023/08/23 01:30:47;;;;;;;4.72;2.78;;;17.00;99.90;;;;;;5051070;28;20123;-35
2023/08/23 01:33:15;;;;;;;3.58;2.28;;;17.00;99.90;;;;;;5049558;28;21624;-35
2023/08/23 01:35:43;;;;;;;3.15;2.33;;;17.10;99.90;;;;;;5057135;28;20403;-35
2023/08/23 01:38:10;;;;;;;3.17;2.33;;;17.10;99.90;;;;;;5064441;28;20509;-35
2023/08/23 01:40:37;;;;;;;5.32;2.85;;;17.10;99.90;;;;;;5058326;28;20036;-35
2023/08/23 01:43:03;;;;;;;3.72;2.45;;;17.10;99.90;;;;;;5063662;28;20048;-35
2023/08/23 01:45:28;;;;;;;3.80;2.80;;;17.00;99.90;;;;;;5062590;28;20059;-35
2023/08/23 01:47:54;;;;;;;4.68;3.10;;;17.10;99.90;;;;;;5061308;28;20040;-35
2023/08/23 01:50:20;;;;;;;15.13;3.33;;;17.00;99.90;;;;;;5061099;28;20052;-35
2023/08/23 01:52:45;;;;;;;8.15;3.70;;;17.00;99.90;;;;;;5063095;28;20048;-35
2023/08/23 01:55:11;;;;;;;5.15;3.55;;;16.90;99.90;;;;;;5063147;28;20093;-35
2023/08/23 01:57:38;;;;;;;5.28;3.67;;;16.90;99.90;;;;;;5060192;28;20564;-35
2023/08/23 02:00:05;;;;;;;4.93;3.60;;;16.90;99.90;;;;;;5058144;28;20139;-35
2023/08/23 02:02:30;;;;;;;6.25;4.18;;;16.90;99.90;;;;;;5048431;28;20257;-35
2023/08/23 02:04:56;;;;;;;5.88;3.83;;;16.90;99.90;;;;;;5061040;28;20557;-35
2023/08/23 02:07:22;;;;;;;5.30;3.80;;;16.90;99.90;;;;;;5058629;28;20056;-35
2023/08/23 02:09:47;;;;;;;5.57;4.07;;;17.00;99.90;;;;;;5062582;28;20061;-34
2023/08/23 02:12:13;;;;;;;5.13;3.47;;;17.00;99.90;;;;;;5045089;28;20064;-35
2023/08/23 02:14:38;;;;;;;6.55;4.07;;;16.90;99.90;;;;;;5056266;28;20052;-35
2023/08/23 02:17:04;;;;;;;5.35;3.88;;;16.90;99.90;;;;;;5059754;28;20052;-35
2023/08/23 02:19:30;;;;;;;5.82;4.22;;;16.90;99.90;;;;;;5062177;28;20535;-35
2023/08/23 02:21:55;;;;;;;7.47;4.25;;;16.90;99.90;;;;;;5058014;28;20040;-34
2023/08/23 02:24:21;;;;;;;6.45;3.85;;;16.90;99.90;;;;;;5059801;28;20048;-35
2023/08/23 02:26:46;;;;;;;6.03;4.00;;;16.90;99.90;;;;;;5057471;28;20391;-35
2023/08/23 02:29:12;;;;;;;6.40;4.28;;;16.90;99.90;;;;;;5057903;28;20131;-35
2023/08/23 02:31:38;;;;;;;5.30;3.65;;;16.90;99.90;;;;;;5049144;28;20045;-35
2023/08/23 02:34:04;;;;;;;6.28;3.85;;;16.90;99.90;;;;;;5041448;28;20049;-35
2023/08/23 02:36:29;;;;;;;6.68;3.88;;;16.90;99.90;;;;;;5060287;28;20143;-35
2023/08/23 02:38:55;;;;;;;6.22;4.15;;;16.90;99.90;;;;;;5059401;28;20739;-35
2023/08/23 02:41:21;;;;;;;6.82;4.28;;;16.90;99.90;;;;;;5060996;28;20521;-34
2023/08/23 02:43:46;;;;;;;5.28;3.92;;;16.90;99.90;;;;;;5050163;28;20094;-35
2023/08/23 02:46:12;;;;;;;6.15;4.07;;;16.90;99.90;;;;;;5059353;28;21450;-35
2023/08/23 02:48:38;;;;;;;4.82;3.50;;;16.90;99.90;;;;;;5053208;28;20040;-34
2023/08/23 02:51:03;;;;;;;5.45;3.67;;;16.90;99.90;;;;;;5059825;28;20040;-35
2023/08/23 02:53:29;;;;;;;6.57;4.38;;;16.90;99.90;;;;;;5062072;28;21785;-35
2023/08/23 02:55:54;;;;;;;6.05;4.28;;;16.90;99.90;;;;;;5060720;28;20048;-35
2023/08/23 02:58:20;;;;;;;6.38;4.25;;;16.90;99.90;;;;;;5059846;28;20052;-35
2023/08/23 03:00:46;;;;;;;8.02;4.95;;;16.80;99.90;;;;;;5060624;28;20060;-35
2023/08/23 03:03:11;;;;;;;6.95;4.25;;;16.80;99.90;;;;;;5046559;28;20052;-38
2023/08/23 03:05:37;;;;;;;6.30;4.28;;;16.70;99.90;;;;;;5059605;28;20064;-35
2023/08/23 03:08:03;;;;;;;9.63;4.60;;;16.70;99.90;;;;;;5040685;28;20057;-34
2023/08/23 03:10:28;;;;;;;7.80;4.63;;;16.70;99.90;;;;;;5066185;28;20070;-35
2023/08/23 03:12:54;;;;;;;5.10;3.83;;;16.70;99.90;;;;;;5060116;28;20052;-34
2023/08/23 03:15:20;;;;;;;6.55;4.63;;;16.60;99.90;;;;;;5041979;28;20078;-35
2023/08/23 03:17:45;;;;;;;7.18;4.55;;;16.70;99.90;;;;;;5058244;28;20076;-35
2023/08/23 03:20:11;;;;;;;5.03;3.50;;;16.70;99.90;;;;;;5047680;28;20636;-35
2023/08/23 03:22:37;;;;;;;6.75;4.00;;;16.60;99.90;;;;;;5057140;28;20774;-35
2023/08/23 03:25:03;;;;;;;5.63;3.85;;;16.60;99.90;;;;;;5065558;28;20063;-35
2023/08/23 03:27:28;;;;;;;6.50;3.80;;;16.60;99.90;;;;;;5063885;28;20139;-35
2023/08/23 03:29:54;;;;;;;6.05;4.38;;;16.60;99.90;;;;;;5063043;28;20053;-35
2023/08/23 03:32:20;;;;;;;6.32;3.88;;;16.60;99.90;;;;;;5063186;28;20113;-35
2023/08/23 03:34:46;;;;;;;7.35;3.97;;;16.60;99.90;;;;;;5055370;28;20482;-35
2023/08/23 03:37:12;;;;;;;5.60;3.90;;;16.60;99.90;;;;;;5061924;28;20060;-35
2023/08/23 03:39:38;;;;;;;6.57;3.85;;;16.60;99.90;;;;;;5058486;28;20102;-35
2023/08/23 03:42:04;;;;;;;5.85;3.83;;;16.60;99.90;;;;;;5060445;28;20547;-35
2023/08/23 03:44:29;;;;;;;5.85;4.50;;;16.60;99.90;;;;;;5061945;28;20053;-35
2023/08/23 03:46:58;;;;;;;5.78;4.00;;;16.60;99.90;;;;;;5059846;28;20049;-35
2023/08/23 03:49:24;;;;;;;7.20;4.05;;;16.50;99.90;;;;;;5056160;28;20060;-35
2023/08/23 03:51:50;;;;;;;6.05;3.80;;;16.50;99.90;;;;;;5057769;28;20391;-35
2023/08/23 03:54:19;;;;;;;4.95;3.50;;;16.50;99.90;;;;;;5062518;28;20246;-35
2023/08/23 03:56:44;;;;;;;5.60;3.75;;;16.50;99.90;;;;;;5065774;28;20347;-35
2023/08/23 03:59:10;;;;;;;5.30;3.67;;;16.50;99.90;;;;;;5064461;28;20057;-35
2023/08/23 04:01:35;;;;;;;5.32;3.85;;;16.50;99.90;;;;;;5068589;28;20048;-35
2023/08/23 04:04:01;;;;;;;6.72;3.70;;;16.40;99.90;;;;;;5047088;28;20087;-35
2023/08/23 04:06:27;;;;;;;4.47;3.22;;;16.40;99.90;;;;;;5052299;28;20461;-35
2023/08/23 04:08:52;;;;;;;5.10;3.65;;;16.40;99.90;;;;;;5054582;28;20052;-35
2023/08/23 04:11:18;;;;;;;4.88;3.40;;;16.40;99.90;;;;;;5064692;28;20045;-35
2023/08/23 04:13:43;;;;;;;4.05;3.10;;;16.40;99.90;;;;;;5063698;28;20405;-35
2023/08/23 04:16:12;;;;;;;5.40;3.78;;;16.40;99.90;;;;;;5062378;28;20049;-35
2023/08/23 04:18:37;;;;;;;5.10;3.50;;;16.30;99.90;;;;;;5063874;28;20078;-35
2023/08/23 04:21:03;;;;;;;4.85;3.00;;;16.30;99.90;;;;;;5063721;28;20048;-35
2023/08/23 04:23:29;;;;;;;5.40;3.85;;;16.30;99.90;;;;;;5066768;28;20040;-35
2023/08/23 04:25:54;;;;;;;4.93;3.10;;;16.30;99.90;;;;;;5066771;28;20045;-35
2023/08/23 04:28:20;;;;;;;4.18;2.90;;;16.20;99.90;;;;;;5056378;28;20048;-35
2023/08/23 04:30:46;;;;;;;5.57;3.00;;;16.30;99.90;;;;;;5064448;28;20048;-35
2023/08/23 04:33:12;;;;;;;4.78;3.15;;;16.20;99.90;;;;;;5064054;28;20082;-35
2023/08/23 04:35:38;;;;;;;5.68;2.78;;;16.20;99.90;;;;;;5056469;28;20418;-35
2023/08/23 04:38:09;;;;;;;4.63;3.08;;;16.20;99.90;;;;;;5057891;28;20052;-35
2023/08/23 04:40:35;;;;;;;4.72;2.60;;;16.10;99.90;;;;;;5051779;28;20045;-35
2023/08/23 04:43:01;;;;;;;4.88;2.78;;;16.10;99.90;;;;;;5047114;28;20054;-35
2023/08/23 04:45:27;;;;;;;4.28;2.85;;;16.00;99.90;;;;;;5060840;28;20044;-35
2023/08/23 04:47:53;;;;;;;3.10;2.20;;;16.00;99.90;;;;;;5051325;28;20045;-35
2023/08/23 04:50:19;;;;;;;4.80;2.65;;;15.90;99.90;;;;;;5050836;28;20052;-36
2023/08/23 04:52:45;;;;;;;6.28;2.63;;;15.80;99.90;;;;;;5059910;28;20167;-35
2023/08/23 04:55:10;;;;;;;3.75;2.50;;;15.80;99.90;;;;;;5056357;28;20477;-35
2023/08/23 04:57:37;;;;;;;4.82;2.30;;;15.80;99.90;;;;;;5054387;28;20515;-34
2023/08/23 05:00:04;;;;;;;3.85;1.75;;;15.80;99.90;;;;;;5058845;28;20567;-35
2023/08/23 05:02:30;;;;;;;4.03;2.28;;;15.80;99.90;;;;;;5061660;28;20056;-34
2023/08/23 05:04:55;;;;;;;3.95;2.55;;;15.90;99.90;;;;;;5062821;28;20048;-35
2023/08/23 05:07:21;;;;;;;3.67;2.53;;;15.90;99.90;;;;;;5059571;28;20056;-34
2023/08/23 05:09:47;;;;;;;5.68;2.83;;;15.90;99.90;;;;;;5060255;28;20099;-34
2023/08/23 05:12:12;;;;;;;3.63;2.40;;;16.00;99.90;;;;;;5048386;28;20056;-35
2023/08/23 05:14:38;;;;;;;3.80;2.17;;;16.00;99.90;;;;;;5064382;28;20040;-34
2023/08/23 05:17:03;;;;;;;3.45;2.50;;;16.00;99.90;;;;;;5064901;28;20127;-34
2023/08/23 05:19:29;;;;;;;3.33;2.13;;;16.00;99.90;;;;;;5063440;28;20450;-34
2023/08/23 05:21:55;;;;;;;6.25;2.88;;;16.00;99.90;;;;;;5063267;28;20041;-34
2023/08/23 05:24:20;;;;;;;3.50;2.05;;;16.00;99.90;;;;;;5058163;28;20056;-34
2023/08/23 05:26:46;;;;;;;3.63;2.50;;;16.00;99.90;;;;;;5059178;28;20422;-39
2023/08/23 05:29:12;;;;;;;7.72;3.00;;;16.00;99.90;;;;;;5048546;28;20417;-34
2023/08/23 05:31:37;;;;;;;7.63;2.83;;;16.00;99.90;;;;;;5045077;28;20068;-34
2023/08/23 05:34:03;;;;;;;4.35;2.63;;;16.00;99.90;;;;;;5049554;28;20597;-34
2023/08/23 05:36:29;;;;;;;5.22;3.05;;;15.90;99.90;;;;;;5062287;28;20052;-34
2023/08/23 05:38:55;;;;;;;4.30;2.70;;;16.00;99.90;;;;;;5061868;28;20044;-34
2023/08/23 05:41:21;;;;;;;5.65;2.88;;;16.00;99.90;;;;;;5061746;28;20129;-34
2023/08/23 05:43:46;;;;;;;6.53;2.83;;;16.10;99.90;;;;;;5059560;28;20048;-35
2023/08/23 05:46:12;;;;;;;5.93;3.03;;;16.10;99.90;;;;;;5048195;28;20048;-35
2023/08/23 05:48:38;;;;;;;4.10;2.97;;;16.20;99.90;;;;;;5047482;28;20052;-34
2023/08/23 05:51:04;;;;;;;4.30;3.03;;;16.20;99.90;;;;;;5057698;28;20056;-34
2023/08/23 05:53:30;;;;;;;5.93;3.40;;;16.30;99.90;;;;;;5047466;28;20090;-35
2023/08/23 05:55:56;;;;;;;4.97;2.80;;;16.30;99.90;;;;;;5054950;28;20044;-35
2023/08/23 05:58:22;;;;;;;6.80;3.30;;;16.40;99.90;;;;;;5054081;28;20420;-35
2023/08/23 06:00:49;;;;;;;6.00;3.58;;;16.40;99.90;;;;;;5061738;28;20055;-36
2023/08/23 06:03:15;;;;;;;7.82;3.08;;;16.50;99.90;;;;;;5059951;28;20074;-35
2023/08/23 06:05:42;;;;;;;9.85;3.05;;;16.60;99.90;;;;;;5063534;28;20056;-35
2023/08/23 06:08:08;;;;;;;7.63;4.10;;;16.70;99.90;;;;;;5063100;28;20101;-34
2023/08/23 06:10:34;;;;;;;5.63;3.53;;;16.80;99.90;;;;;;5061701;28;20219;-35
2023/08/23 06:13:00;;;;;;;4.75;3.00;;;16.90;99.90;;;;;;5063098;28;20139;-34
2023/08/23 06:15:26;;;;;;;5.30;3.70;;;17.00;99.90;;;;;;5060654;28;20055;-34
2023/08/23 06:17:54;;;;;;;6.57;3.25;;;17.00;99.90;;;;;;5060800;28;20052;-34
2023/08/23 06:20:20;;;;;;;8.00;4.13;;;17.10;99.90;;;;;;5050491;28;20049;-34
2023/08/23 06:22:46;;;;;;;6.18;4.18;;;17.10;99.90;;;;;;5061795;28;20049;-35
2023/08/23 06:25:11;;;;;;;6.25;4.13;;;17.20;99.90;;;;;;5058922;28;20075;-34
2023/08/23 06:27:37;;;;;;;6.25;3.78;;;17.20;99.90;;;;;;5059263;28;20091;-35
2023/08/23 06:30:04;;;;;;;6.68;4.05;;;17.30;99.90;;;;;;5062369;28;20045;-35
2023/08/23 06:32:30;;;;;;;6.82;4.00;;;17.30;99.90;;;;;;5055282;28;20052;-34
2023/08/23 06:34:55;;;;;;;5.80;4.25;;;17.40;99.90;;;;;;5045959;28;20055;-35
2023/08/23 06:37:21;;;;;;;7.70;3.78;;;17.40;99.90;;;;;;5053744;28;20066;-35
2023/08/23 06:39:49;;;;;;;7.68;4.20;;;17.50;99.90;;;;;;5058323;28;20064;-35
2023/08/23 06:42:15;;;;;;;6.68;3.88;;;17.50;99.90;;;;;;5055058;28;20135;-35
2023/08/23 06:44:41;;;;;;;6.90;5.00;;;17.50;99.90;;;;;;5051521;28;20514;-35
2023/08/23 06:47:06;;;;;;;7.10;4.78;;;17.50;99.90;;;;;;5064126;28;20052;-35
2023/08/23 06:49:32;;;;;;;7.88;4.90;;;17.60;99.90;;;;;;5064329;28;20436;-35
2023/08/23 06:51:58;;;;;;;7.40;4.88;;;17.60;99.90;;;;;;5060387;28;20074;-35
2023/08/23 06:54:23;;;;;;;8.30;5.38;;;17.70;99.90;;;;;;5060354;28;20516;-35
2023/08/23 06:56:49;;;;;;;7.50;5.32;;;17.70;99.90;;;;;;5061042;28;20064;-35
2023/08/23 06:59:15;;;;;;;7.88;5.25;;;17.80;99.90;;;;;;5064169;28;20082;-35
2023/08/23 07:01:41;;;;;;;6.28;4.57;;;17.90;99.90;;;;;;5064535;28;20426;-37
2023/08/23 07:04:06;;;;;;;8.68;5.40;;;18.00;99.90;;;;;;5064612;28;20049;-35
2023/08/23 07:06:32;;;;;;;5.70;4.05;;;18.10;99.90;;;;;;5062691;28;20052;-35
2023/08/23 07:08:58;;;;;;;6.88;4.18;;;18.10;99.90;;;;;;5053637;28;22103;-35
2023/08/23 07:11:23;;;;;;;6.03;4.38;;;18.20;99.90;;;;;;5057657;28;20060;-35
2023/08/23 07:13:49;;;;;;;8.23;4.82;;;18.30;99.90;;;;;;5056304;28;20136;-35
2023/08/23 07:16:15;;;;;;;6.32;4.60;;;18.20;99.90;;;;;;5060980;28;20048;-34
2023/08/23 07:18:40;;;;;;;11.07;4.53;;;18.30;99.90;;;;;;5066394;28;20093;-36
2023/08/23 07:21:06;;;;;;;8.10;4.85;;;18.20;99.90;;;;;;5056791;28;20627;-35
2023/08/23 07:23:34;;;;;;;6.82;4.80;;;18.30;99.90;;;;;;5059387;28;20049;-35
2023/08/23 07:26:02;;;;;;;8.52;5.05;;;18.30;99.90;;;;;;5064550;28;20056;-35
2023/08/23 07:28:28;;;;;;;7.95;4.70;;;18.30;99.90;;;;;;5059837;28;20594;-35
2023/08/23 07:30:57;;;;;;;7.80;4.55;;;18.40;99.90;;;;;;5063121;28;20056;-35
2023/08/23 07:33:26;;;;;;;7.70;5.00;;;18.40;99.90;;;;;;5062908;28;20051;-35
2023/08/23 07:35:59;;;;;;;12.13;5.60;;;18.60;99.90;;;;;;5064983;28;20090;-35
2023/08/23 07:38:25;;;;;;;7.18;4.47;;;18.60;99.90;;;;;;5054504;28;20056;-35
2023/08/23 07:40:56;;;;;;;8.98;5.53;;;18.70;99.90;;;;;;5048466;28;20052;-36
2023/08/23 07:43:22;;;;;;;7.53;5.17;;;18.90;99.90;;;;;;5064299;28;20051;-36
2023/08/23 07:45:53;;;;;;;8.27;5.20;;;18.90;99.90;;;;;;5055218;28;20418;-35
2023/08/23 07:48:19;;;;;;;8.43;5.65;;;19.00;99.90;;;;;;5064910;28;20059;-35
2023/08/23 07:50:48;;;;;;;8.73;5.40;;;19.00;99.90;;;;;;5062976;28;20056;-35
2023/08/23 07:53:13;;;;;;;8.02;4.60;;;19.10;99.90;;;;;;5041413;28;20060;-35
2023/08/23 07:55:39;;;;;;;12.25;5.28;;;19.20;99.90;;;;;;5062242;28;20063;-36
2023/08/23 07:58:05;;;;;;;10.75;5.82;;;19.30;99.90;;;;;;5060694;28;20071;-35
2023/08/23 08:00:31;;;;;;;12.32;7.07;;;19.30;99.90;;;;;;5063520;28;20098;-36
2023/08/23 08:02:57;;;;;;;9.10;4.75;;;19.50;99.90;;;;;;5062109;28;20510;-35
2023/08/23 08:05:22;;;;;;;7.30;5.15;;;19.60;99.90;;;;;;5054014;28;20053;-35
2023/08/23 08:07:48;;;;;;;10.35;5.35;;;19.70;99.90;;;;;;5055647;28;20059;-35
2023/08/23 08:10:14;;;;;;;11.23;5.63;;;19.80;99.90;;;;;;5062259;28;20052;-35
2023/08/23 08:12:39;;;;;;;9.32;6.03;;;19.80;99.90;;;;;;5061651;28;20048;-35
2023/08/23 08:15:06;;;;;;;8.35;5.30;;;19.90;99.90;;;;;;5068047;28;20052;-35
2023/08/23 08:17:34;;;;;;;8.07;5.15;;;20.00;99.90;;;;;;5054996;28;20053;-35
2023/08/23 08:20:04;;;;;;;10.50;6.32;;;20.10;99.90;;;;;;5048433;28;20049;-35
2023/08/23 08:22:31;;;;;;;9.38;5.35;;;20.20;99.90;;;;;;5056256;28;20215;-35
2023/08/23 08:24:57;;;;;;;8.25;5.05;;;20.20;99.90;;;;;;5057421;28;20044;-35
2023/08/23 08:27:23;;;;;;;9.55;5.90;;;20.30;99.90;;;;;;5046180;28;20127;-35
2023/08/23 08:29:49;;;;;;;10.60;5.32;;;20.30;99.90;;;;;;5049911;28;20762;-36
2023/08/23 08:32:15;;;;;;;8.25;5.30;;;20.40;99.90;;;;;;5057586;28;20048;-36
2023/08/23 08:34:41;;;;;;;8.98;5.28;;;20.50;99.90;;;;;;5058788;28;20082;-35
2023/08/23 08:37:06;;;;;;;8.55;5.20;;;20.50;99.90;;;;;;5055199;28;20082;-35
2023/08/23 08:39:32;;;;;;;8.50;5.30;;;20.60;99.90;;;;;;5062573;28;20045;-35
2023/08/23 08:41:59;;;;;;;6.43;4.30;;;20.70;99.90;;;;;;5059155;28;20257;-35
2023/08/23 08:44:25;;;;;;;7.65;5.32;;;20.80;99.90;;;;;;5056338;28;20048;-35
2023/08/23 08:46:51;;;;;;;6.63;3.85;;;20.90;99.90;;;;;;5058805;28;20056;-35
2023/08/23 08:49:17;;;;;;;9.38;5.72;;;21.00;99.90;;;;;;5059437;28;20635;-35
2023/08/23 08:51:47;;;;;;;10.25;5.95;;;21.20;99.90;;;;;;5058549;28;20048;-35
2023/08/23 08:54:16;;;;;;;6.53;3.42;;;21.20;99.90;;;;;;5057709;28;20093;-35
2023/08/23 08:56:46;;;;;;;6.43;3.65;;;21.40;99.90;;;;;;5056136;28;20064;-34
2023/08/23 08:59:12;;;;;;;8.25;3.95;;;21.60;99.90;;;;;;5060429;28;20087;-35
2023/08/23 09:01:38;;;;;;;6.60;3.40;;;21.80;99.90;;;;;;5055488;28;20135;-35
2023/08/23 09:04:04;;;;;;;5.88;3.20;;;21.90;99.90;;;;;;5064148;28;20048;-35
2023/08/23 09:06:31;;;;;;;6.88;3.47;;;22.00;99.90;;;;;;5054150;28;20061;-35
2023/08/23 09:09:00;;;;;;;4.18;2.03;;;22.10;99.90;;;;;;5065921;28;20166;-33
2023/08/23 09:11:26;;;;;;;6.40;2.35;;;22.10;99.90;;;;;;5052323;28;20044;-32
2023/08/23 09:13:52;;;;;;;5.20;3.35;;;22.30;99.90;;;;;;5064134;28;20532;-34
2023/08/23 09:16:17;;;;;;;6.95;4.45;;;22.40;99.90;;;;;;5057169;28;20052;-34
2023/08/23 09:18:46;;;;;;;6.18;3.38;;;22.50;99.90;;;;;;5062266;28;20135;-34
2023/08/23 09:21:13;;;;;;;6.20;3.70;;;22.50;99.90;;;;;;5062595;28;20052;-34
2023/08/23 09:23:39;;;;;;;7.75;3.90;;;22.60;99.90;;;;;;5064427;28;20040;-34
2023/08/23 09:26:06;;;;;;;6.85;4.55;;;22.60;99.90;;;;;;5054483;28;20063;-34
2023/08/23 09:28:32;;;;;;;7.75;3.88;;;22.60;99.90;;;;;;5055480;28;20052;-34
2023/08/23 09:31:01;;;;;;;5.60;3.38;;;22.60;99.90;;;;;;5037994;28;20059;-34
2023/08/23 09:33:27;;;;;;;6.72;3.97;;;22.70;99.90;;;;;;5052818;28;20530;-34
2023/08/23 09:35:56;;;;;;;6.70;3.20;;;22.80;99.90;;;;;;5039601;28;20058;-34
2023/08/23 09:38:22;;;;;;;8.57;3.85;;;22.80;99.90;;;;;;5052724;28;20135;-34
2023/08/23 09:40:48;;;;;;;5.80;3.83;;;22.90;99.90;;;;;;5045085;28;20140;-35
2023/08/23 09:43:17;;;;;;;9.40;3.70;;;22.90;99.90;;;;;;5037647;28;20056;-34
2023/08/23 09:45:47;;;;;;;7.72;4.28;;;23.00;99.90;;;;;;5056917;28;20505;-34
2023/08/23 09:48:17;;;;;;;8.18;3.78;;;23.00;99.90;;;;;;5046503;28;20151;-34
2023/08/23 09:50:42;;;;;;;10.20;4.95;;;23.10;99.90;;;;;;5053160;28;20143;-34
2023/08/23 09:53:20;;;;;;;6.70;4.70;;;23.10;99.90;;;;;;5044552;28;20073;-34
2023/08/23 09:55:47;;;;;;;6.97;3.88;;;23.20;99.90;;;;;;5061113;28;20056;-34
2023/08/23 09:58:13;;;;;;;7.60;4.22;;;23.20;99.90;;;;;;5051662;28;20053;-34
2023/08/23 10:00:39;;;;;;;5.10;3.45;;;23.30;99.90;;;;;;5057302;28;20045;-34
2023/08/23 10:03:07;;;;;;;11.25;4.57;;;23.30;99.90;;;;;;5055666;28;21383;-34
2023/08/23 10:05:34;;;;;;;6.13;3.90;;;23.40;99.90;;;;;;5059127;28;20085;-34
2023/08/23 10:08:02;;;;;;;6.03;4.30;;;23.50;99.90;;;;;;5061972;28;20494;-34
2023/08/23 10:10:30;;;;;;;6.18;4.07;;;23.60;99.90;;;;;;5059301;28;20422;-34
2023/08/23 10:13:04;;;;;;;5.50;3.50;;;23.60;99.90;;;;;;5056021;28;20245;-34
2023/08/23 10:15:34;;;;;;;6.03;3.58;;;23.60;99.90;;;;;;5058832;28;20052;-34
2023/08/23 10:18:02;;;;;;;5.70;3.53;;;23.60;99.90;;;;;;5059192;28;20075;-34
2023/08/23 10:20:28;;;;;;;6.90;3.65;;;23.70;99.90;;;;;;5067134;28;20048;-34
2023/08/23 10:22:57;;;;;;;7.13;3.38;;;23.80;99.90;;;;;;5067737;28;20056;-34
2023/08/23 10:25:23;;;;;;;8.27;3.95;;;23.90;99.90;;;;;;5056187;28;20501;-34
2023/08/23 10:27:52;;;;;;;5.68;3.60;;;23.90;99.90;;;;;;5051677;28;20068;-34
2023/08/23 10:30:24;;;;;;;8.18;3.95;;;24.00;99.90;;;;;;5057473;28;20128;-34
2023/08/23 10:32:52;;;;;;;6.70;4.38;;;24.10;99.90;;;;;;5062727;28;20187;-34
2023/08/23 10:35:37;;;;;;;7.82;3.78;;;24.20;99.90;;;;;;5063047;28;20102;-36
2023/08/23 10:38:07;;;;;;;6.50;4.07;;;24.30;99.90;;;;;;5055231;28;20060;-36
2023/08/23 10:40:35;;;;;;;6.90;3.53;;;24.50;99.90;;;;;;5056684;28;20052;-34
2023/08/23 10:43:11;;;;;;;6.70;3.08;;;24.60;99.90;;;;;;5051506;28;20414;-34
2023/08/23 10:45:51;;;;;;;5.20;3.00;;;24.60;99.90;;;;;;5061510;28;20045;-35
2023/08/23 10:48:22;;;;;;;4.55;3.08;;;24.60;99.90;;;;;;5063681;28;20067;-35
2023/08/23 10:50:48;;;;;;;6.85;3.00;;;24.60;99.90;;;;;;5061085;28;20101;-34
2023/08/23 10:53:16;;;;;;;6.15;3.08;;;24.70;99.90;;;;;;5051299;28;20501;-35
2023/08/23 10:55:42;;;;;;;6.60;3.13;;;24.70;99.90;;;;;;5063061;28;20162;-35
2023/08/23 10:58:07;;;;;;;5.07;3.03;;;24.80;99.90;;;;;;5064656;28;20052;-35
2023/08/23 11:00:33;;;;;;;5.47;3.17;;;24.80;99.90;;;;;;5061622;28;20124;-36
2023/08/23 11:02:59;;;;;;;7.47;3.80;;;24.90;99.90;;;;;;5061275;28;20449;-35
2023/08/23 11:05:25;;;;;;;6.30;4.00;;;24.90;99.90;;;;;;5063740;28;20079;-36
2023/08/23 11:07:51;;;;;;;7.65;3.55;;;24.80;99.90;;;;;;5066589;28;20075;-36
2023/08/23 11:10:18;;;;;;;5.57;2.85;;;24.90;99.90;;;;;;5054949;28;20804;-35
2023/08/23 11:12:44;;;;;;;7.82;3.58;;;25.00;99.90;;;;;;5055500;28;20534;-35
2023/08/23 11:15:10;;;;;;;7.43;4.00;;;25.10;99.90;;;;;;5049352;28;20082;-35
2023/08/23 11:17:37;;;;;;;8.57;4.15;;;25.10;99.90;;;;;;5052232;28;20087;-35
2023/08/23 11:20:03;;;;;;;5.68;4.57;;;25.20;99.90;;;;;;5055375;28;20062;-36
2023/08/23 11:22:29;;;;;;;6.60;3.38;;;25.20;99.90;;;;;;5059468;28;20058;-35
2023/08/23 11:24:57;;;;;;;8.38;4.20;;;25.30;99.90;;;;;;5064798;28;20044;-35
2023/08/23 11:27:22;;;;;;;12.27;4.80;;;25.30;99.90;;;;;;5061105;28;20063;-35
2023/08/23 11:29:48;;;;;;;7.43;4.60;;;25.40;99.90;;;;;;5049434;28;20410;-36
2023/08/23 11:32:14;;;;;;;5.63;3.75;;;25.40;99.90;;;;;;5063941;28;20133;-35
2023/08/23 11:34:39;;;;;;;7.15;4.60;;;25.50;99.90;;;;;;5064245;28;20093;-36
2023/08/23 11:37:12;;;;;;;8.48;4.30;;;25.60;99.90;;;;;;5060189;28;20048;-36
2023/08/23 11:39:38;;;;;;;5.28;4.13;;;25.70;99.90;;;;;;5067547;28;20045;-33
2023/08/23 11:42:05;;;;;;;5.82;3.90;;;25.80;99.90;;;;;;5058010;28;20521;-36
2023/08/23 11:44:31;;;;;;;5.97;2.78;;;25.90;99.90;;;;;;5061485;28;20051;-35
2023/08/23 11:46:58;;;;;;;5.78;2.20;;;26.00;99.90;;;;;;5060474;28;20052;-36
2023/08/23 11:49:24;;;;;;;4.35;2.35;;;25.90;99.90;;;;;;5058191;28;20176;-36
2023/08/23 11:51:50;;;;;;;4.90;3.15;;;25.90;99.90;;;;;;5058608;28;20067;-33
2023/08/23 11:54:17;;;;;;;6.47;2.50;;;26.00;99.90;;;;;;5043558;28;20479;-34
2023/08/23 11:56:46;;;;;;;3.72;2.50;;;26.00;99.90;;;;;;5054024;28;20045;-35
2023/08/23 11:59:15;;;;;;;5.97;3.10;;;26.00;99.90;;;;;;5051044;28;20114;-34
2023/08/23 12:01:42;;;;;;;5.90;3.42;;;26.00;99.90;;;;;;5054574;28;20048;-34
2023/08/23 12:04:10;;;;;;;3.83;2.40;;;26.10;99.90;;;;;;5066300;28;20788;-35
2023/08/23 12:06:36;;;;;;;4.70;2.28;;;26.00;99.90;;;;;;5067498;28;20048;-36
2023/08/23 12:09:01;;;;;;;5.57;2.50;;;25.90;99.90;;;;;;5063713;28;20452;-35
2023/08/23 12:11:27;;;;;;;3.47;2.17;;;25.80;99.90;;;;;;5058364;28;20063;-35
2023/08/23 12:13:53;;;;;;;4.15;2.10;;;25.70;99.90;;;;;;5058816;28;20414;-35
2023/08/23 12:16:18;;;;;;;3.97;2.00;;;25.80;99.90;;;;;;5049066;28;20437;-35
2023/08/23 12:18:46;;;;;;;4.75;2.95;;;25.90;99.90;;;;;;5056162;28;20457;-35
2023/08/23 12:21:12;;;;;;;4.78;2.50;;;26.10;99.90;;;;;;5050596;28;20067;-35
2023/08/23 12:23:37;;;;;;;5.75;2.38;;;26.30;99.90;;;;;;5031667;28;20049;-35
2023/08/23 12:26:03;;;;;;;4.70;2.53;;;26.40;99.90;;;;;;5050749;28;20574;-35
2023/08/23 12:28:29;;;;;;;4.90;2.55;;;26.60;99.90;;;;;;5053507;28;20056;-35
2023/08/23 12:30:55;;;;;;;5.15;2.80;;;26.70;99.90;;;;;;5049091;28;20059;-35
2023/08/23 12:33:21;;;;;;;4.55;2.80;;;26.80;99.90;;;;;;5056075;28;20060;-35
2023/08/23 12:35:46;;;;;;;6.18;2.50;;;26.90;99.90;;;;;;5050615;28;20704;-33
2023/08/23 12:38:12;;;;;;;6.63;3.22;;;27.00;99.90;;;;;;5046823;28;20052;-33
2023/08/23 12:40:38;;;;;;;5.30;2.65;;;27.10;99.90;;;;;;5057896;28;20109;-33
2023/08/23 12:43:04;;;;;;;6.43;2.13;;;27.20;99.90;;;;;;5058557;28;20055;-33